Addisleigh Park, NY

9:47 PM EST on November 20, 2014 (GMT -0500)
La Guardia | Change Station
CLOSE
Current Station
Airport
Location: New York,
Elevation: 30 ft
Nearby Weather Stations

Elev 30 ft 40.78 °N, 73.88 °W | Updated 56 minutes ago

Partly Cloudy
Partly Cloudy
37 °F
Feels Like 27 °F
N
17
Wind Variable Wind from WNW
Gusts 23 mph

Today
High -- | Low -- °F
--% Chance of Precip.
Yesterday
High -- | Low -- °F
Precip. -- in
6:47 AM 4:33 PM
Waning Crescent, 2% visible
Pressure 29.96 in
Visibility 10.0 miles
Clouds Few 6000 ft
Windchill 27 °F
Dew Point 15 °F
Humidity 41%
Rainfall 0.00 in
Snow Depth Not available.
UV 0 out of 12
Pollen .10 out of 12
Air Quality Not available.
Flu Activity Not available.
METAR KLGA 210151Z 30015G20KT 10SM FEW060 03/M09 A2996 RMK AO2 PK WND 29027/0109 SLP146 T00281094

More Conditions Fewer Conditions

Pressure 29.96 in
Visibility 10.0 miles
Clouds Few 6000 ft
Windchill 27 °F
Dew Point 15 °F
Humidity 41%
Rainfall 0.00 in
Snow Depth Not available.
UV 0 out of 12
Pollen .10 out of 12
Air Quality Not available.
Flu Activity Not available.
METAR KLGA 210151Z 30015G20KT 10SM FEW060 03/M09 A2996 RMK AO2 PK WND 29027/0109 SLP146 T00281094

More Conditions Fewer Conditions

10-Day Weather Forecast

Almanac

Astronomy

Nov. 20, 2014 Rise Set
Actual Time
Civil Twilight
Nautical Twilight
Astronomical Twilight
Moon
Length of Visible Light
Length of Day
Tomorrow will be .
, % of the Moon is Illuminated

Today's Extremes

State Highs State Lows

Community

WunderPhotos

Upload Photos

1,772,593 photos uploaded!

WunderBlogs® & News

Nearby

Air Quality

  Air Quality AQ Index Pollutant
Not available.

Snow Depth

Station Depth Elevation

Earthquake Activity

City Distance Mag. Time & Date
Minimum magnitude displayed is 2.5.

Coastal Water Temperatures

Place Temperature

Nearby Weather Stations